sensor_id;sensor_type;location;lat;lon;timestamp;P1;durP1;ratioP1;P2;durP2;ratioP2
81191;SDS011;70665;47.652;-2.730;2023-08-30T00:00:14;6.25;;;2.00;;
81191;SDS011;70665;47.652;-2.730;2023-08-30T00:02:42;4.18;;;1.88;;
81191;SDS011;70665;47.652;-2.730;2023-08-30T00:05:09;7.20;;;1.83;;
81191;SDS011;70665;47.652;-2.730;2023-08-30T00:07:35;5.28;;;1.98;;
81191;SDS011;70665;47.652;-2.730;2023-08-30T00:10:01;3.33;;;1.95;;
81191;SDS011;70665;47.652;-2.730;2023-08-30T00:12:27;7.90;;;1.98;;
81191;SDS011;70665;47.652;-2.730;2023-08-30T00:14:53;7.18;;;1.80;;
81191;SDS011;70665;47.652;-2.730;2023-08-30T00:17:19;4.43;;;1.70;;
81191;SDS011;70665;47.652;-2.730;2023-08-30T00:19:45;6.72;;;2.05;;
81191;SDS011;70665;47.652;-2.730;2023-08-30T00:22:10;4.78;;;2.13;;
81191;SDS011;70665;47.652;-2.730;2023-08-30T00:24:37;5.40;;;2.20;;
81191;SDS011;70665;47.652;-2.730;2023-08-30T00:27:03;6.57;;;2.78;;
81191;SDS011;70665;47.652;-2.730;2023-08-30T00:29:29;6.28;;;2.60;;
81191;SDS011;70665;47.652;-2.730;2023-08-30T00:31:55;6.78;;;2.42;;
81191;SDS011;70665;47.652;-2.730;2023-08-30T00:34:21;5.72;;;2.30;;
81191;SDS011;70665;47.652;-2.730;2023-08-30T00:36:47;4.72;;;2.20;;
81191;SDS011;70665;47.652;-2.730;2023-08-30T00:39:13;4.15;;;2.08;;
81191;SDS011;70665;47.652;-2.730;2023-08-30T00:41:39;6.72;;;2.15;;
81191;SDS011;70665;47.652;-2.730;2023-08-30T00:44:05;5.22;;;2.35;;
81191;SDS011;70665;47.652;-2.730;2023-08-30T00:46:31;1.55;;;1.17;;
81191;SDS011;70665;47.652;-2.730;2023-08-30T00:48:58;2.15;;;1.40;;
81191;SDS011;70665;47.652;-2.730;2023-08-30T00:51:28;1.52;;;1.00;;
81191;SDS011;70665;47.652;-2.730;2023-08-30T00:53:54;2.38;;;1.42;;
81191;SDS011;70665;47.652;-2.730;2023-08-30T00:56:20;3.35;;;1.45;;
81191;SDS011;70665;47.652;-2.730;2023-08-30T00:58:47;5.20;;;1.48;;
81191;SDS011;70665;47.652;-2.730;2023-08-30T01:01:14;3.85;;;1.42;;
81191;SDS011;70665;47.652;-2.730;2023-08-30T01:03:41;2.25;;;1.20;;
81191;SDS011;70665;47.652;-2.730;2023-08-30T01:06:07;3.25;;;1.50;;
81191;SDS011;70665;47.652;-2.730;2023-08-30T01:08:33;2.78;;;1.23;;
81191;SDS011;70665;47.652;-2.730;2023-08-30T01:14:03;2.97;;;1.30;;
81191;SDS011;70665;47.652;-2.730;2023-08-30T01:16:49;2.45;;;1.50;;
81191;SDS011;70665;47.652;-2.730;2023-08-30T01:19:36;2.55;;;1.40;;
81191;SDS011;70665;47.652;-2.730;2023-08-30T01:27:54;2.30;;;1.20;;
81191;SDS011;70665;47.652;-2.730;2023-08-30T01:30:21;2.42;;;1.10;;
81191;SDS011;70665;47.652;-2.730;2023-08-30T01:32:48;2.55;;;1.25;;
81191;SDS011;70665;47.652;-2.730;2023-08-30T01:35:15;1.67;;;1.13;;
81191;SDS011;70665;47.652;-2.730;2023-08-30T01:37:47;2.45;;;1.23;;
81191;SDS011;70665;47.652;-2.730;2023-08-30T01:40:13;2.45;;;1.23;;
81191;SDS011;70665;47.652;-2.730;2023-08-30T01:42:41;1.48;;;1.10;;
81191;SDS011;70665;47.652;-2.730;2023-08-30T01:45:10;2.72;;;1.50;;
81191;SDS011;70665;47.652;-2.730;2023-08-30T01:47:38;2.88;;;1.35;;
81191;SDS011;70665;47.652;-2.730;2023-08-30T01:50:06;1.88;;;1.13;;
81191;SDS011;70665;47.652;-2.730;2023-08-30T01:52:32;2.83;;;1.15;;
81191;SDS011;70665;47.652;-2.730;2023-08-30T01:54:58;3.60;;;1.10;;
81191;SDS011;70665;47.652;-2.730;2023-08-30T01:57:26;2.42;;;1.10;;
81191;SDS011;70665;47.652;-2.730;2023-08-30T01:59:52;3.53;;;1.33;;
81191;SDS011;70665;47.652;-2.730;2023-08-30T02:02:18;2.95;;;1.10;;
81191;SDS011;70665;47.652;-2.730;2023-08-30T02:04:43;2.60;;;1.63;;
81191;SDS011;70665;47.652;-2.730;2023-08-30T02:07:20;5.15;;;1.70;;
81191;SDS011;70665;47.652;-2.730;2023-08-30T02:10:08;3.45;;;1.50;;
81191;SDS011;70665;47.652;-2.730;2023-08-30T02:12:42;2.72;;;1.30;;
81191;SDS011;70665;47.652;-2.730;2023-08-30T02:15:12;5.13;;;2.13;;
81191;SDS011;70665;47.652;-2.730;2023-08-30T02:17:39;3.05;;;1.05;;
81191;SDS011;70665;47.652;-2.730;2023-08-30T02:20:05;1.40;;;1.00;;
81191;SDS011;70665;47.652;-2.730;2023-08-30T02:22:32;3.17;;;1.30;;
81191;SDS011;70665;47.652;-2.730;2023-08-30T02:24:58;2.85;;;1.15;;
81191;SDS011;70665;47.652;-2.730;2023-08-30T02:27:24;5.07;;;1.40;;
81191;SDS011;70665;47.652;-2.730;2023-08-30T02:29:50;2.83;;;1.20;;
81191;SDS011;70665;47.652;-2.730;2023-08-30T02:32:15;5.00;;;1.35;;
81191;SDS011;70665;47.652;-2.730;2023-08-30T02:34:45;4.85;;;1.40;;
81191;SDS011;70665;47.652;-2.730;2023-08-30T02:37:14;3.95;;;1.50;;
81191;SDS011;70665;47.652;-2.730;2023-08-30T02:39:40;2.25;;;1.38;;
81191;SDS011;70665;47.652;-2.730;2023-08-30T02:42:06;2.25;;;1.13;;
81191;SDS011;70665;47.652;-2.730;2023-08-30T02:44:31;2.10;;;1.02;;
81191;SDS011;70665;47.652;-2.730;2023-08-30T02:46:57;2.58;;;1.77;;
81191;SDS011;70665;47.652;-2.730;2023-08-30T02:49:22;3.08;;;1.20;;
81191;SDS011;70665;47.652;-2.730;2023-08-30T02:51:48;1.80;;;1.08;;
81191;SDS011;70665;47.652;-2.730;2023-08-30T02:54:14;2.83;;;1.15;;
81191;SDS011;70665;47.652;-2.730;2023-08-30T02:56:42;4.88;;;1.27;;
81191;SDS011;70665;47.652;-2.730;2023-08-30T02:59:09;2.70;;;1.33;;
81191;SDS011;70665;47.652;-2.730;2023-08-30T03:01:35;3.78;;;1.33;;
81191;SDS011;70665;47.652;-2.730;2023-08-30T03:04:01;3.92;;;1.45;;
81191;SDS011;70665;47.652;-2.730;2023-08-30T03:06:28;3.60;;;1.42;;
81191;SDS011;70665;47.652;-2.730;2023-08-30T03:11:19;5.90;;;1.38;;
81191;SDS011;70665;47.652;-2.730;2023-08-30T03:13:45;1.52;;;0.98;;
81191;SDS011;70665;47.652;-2.730;2023-08-30T03:18:37;2.40;;;1.73;;
81191;SDS011;70665;47.652;-2.730;2023-08-30T03:21:03;4.45;;;1.30;;
81191;SDS011;70665;47.652;-2.730;2023-08-30T03:25:56;5.00;;;1.60;;
81191;SDS011;70665;47.652;-2.730;2023-08-30T03:30:47;1.75;;;1.17;;
81191;SDS011;70665;47.652;-2.730;2023-08-30T03:33:13;2.42;;;1.15;;
81191;SDS011;70665;47.652;-2.730;2023-08-30T03:35:39;4.72;;;1.60;;
81191;SDS011;70665;47.652;-2.730;2023-08-30T03:38:04;2.22;;;1.38;;
81191;SDS011;70665;47.652;-2.730;2023-08-30T03:40:30;3.65;;;1.60;;
81191;SDS011;70665;47.652;-2.730;2023-08-30T03:42:56;3.10;;;1.50;;
81191;SDS011;70665;47.652;-2.730;2023-08-30T03:45:21;3.33;;;1.35;;
81191;SDS011;70665;47.652;-2.730;2023-08-30T03:47:47;4.80;;;1.75;;
81191;SDS011;70665;47.652;-2.730;2023-08-30T03:50:13;3.67;;;1.48;;
81191;SDS011;70665;47.652;-2.730;2023-08-30T03:52:39;5.75;;;1.40;;
81191;SDS011;70665;47.652;-2.730;2023-08-30T03:55:04;4.28;;;1.40;;
81191;SDS011;70665;47.652;-2.730;2023-08-30T03:57:30;5.55;;;1.70;;
81191;SDS011;70665;47.652;-2.730;2023-08-30T03:59:56;4.15;;;1.50;;
81191;SDS011;70665;47.652;-2.730;2023-08-30T04:02:21;2.95;;;1.45;;
81191;SDS011;70665;47.652;-2.730;2023-08-30T04:04:48;2.85;;;1.50;;
81191;SDS011;70665;47.652;-2.730;2023-08-30T04:09:39;4.68;;;1.38;;
81191;SDS011;70665;47.652;-2.730;2023-08-30T04:12:05;8.77;;;1.70;;
81191;SDS011;70665;47.652;-2.730;2023-08-30T04:16:56;2.55;;;1.35;;
81191;SDS011;70665;47.652;-2.730;2023-08-30T04:21:47;4.07;;;2.38;;
81191;SDS011;70665;47.652;-2.730;2023-08-30T04:24:14;2.88;;;1.67;;
81191;SDS011;70665;47.652;-2.730;2023-08-30T04:26:40;3.38;;;1.90;;
81191;SDS011;70665;47.652;-2.730;2023-08-30T04:29:06;3.50;;;1.63;;
81191;SDS011;70665;47.652;-2.730;2023-08-30T04:33:57;5.78;;;1.67;;
81191;SDS011;70665;47.652;-2.730;2023-08-30T04:38:48;3.47;;;1.52;;
81191;SDS011;70665;47.652;-2.730;2023-08-30T04:41:14;4.85;;;1.92;;
81191;SDS011;70665;47.652;-2.730;2023-08-30T04:43:39;4.75;;;1.80;;
81191;SDS011;70665;47.652;-2.730;2023-08-30T04:48:31;7.40;;;1.70;;
81191;SDS011;70665;47.652;-2.730;2023-08-30T04:53:29;5.85;;;1.77;;
81191;SDS011;70665;47.652;-2.730;2023-08-30T04:58:20;3.40;;;1.55;;
81191;SDS011;70665;47.652;-2.730;2023-08-30T05:03:11;4.00;;;1.45;;
81191;SDS011;70665;47.652;-2.730;2023-08-30T05:08:03;8.75;;;3.33;;
81191;SDS011;70665;47.652;-2.730;2023-08-30T05:12:54;4.13;;;1.90;;
81191;SDS011;70665;47.652;-2.730;2023-08-30T05:17:46;6.10;;;1.60;;
81191;SDS011;70665;47.652;-2.730;2023-08-30T05:20:12;3.72;;;1.90;;
81191;SDS011;70665;47.652;-2.730;2023-08-30T05:22:38;2.85;;;1.70;;
81191;SDS011;70665;47.652;-2.730;2023-08-30T05:27:29;5.13;;;2.20;;
81191;SDS011;70665;47.652;-2.730;2023-08-30T05:32:23;5.63;;;2.50;;
81191;SDS011;70665;47.652;-2.730;2023-08-30T05:37:14;7.20;;;1.95;;
81191;SDS011;70665;47.652;-2.730;2023-08-30T05:39:40;4.60;;;2.22;;
81191;SDS011;70665;47.652;-2.730;2023-08-30T05:42:06;4.53;;;1.92;;
81191;SDS011;70665;47.652;-2.730;2023-08-30T05:46:57;6.13;;;2.22;;
81191;SDS011;70665;47.652;-2.730;2023-08-30T05:51:48;6.63;;;2.42;;
81191;SDS011;70665;47.652;-2.730;2023-08-30T05:56:39;4.07;;;2.10;;
81191;SDS011;70665;47.652;-2.730;2023-08-30T06:01:30;4.60;;;2.25;;
81191;SDS011;70665;47.652;-2.730;2023-08-30T06:03:56;5.85;;;2.70;;
81191;SDS011;70665;47.652;-2.730;2023-08-30T06:08:47;7.90;;;3.10;;
81191;SDS011;70665;47.652;-2.730;2023-08-30T06:11:13;6.90;;;2.70;;
81191;SDS011;70665;47.652;-2.730;2023-08-30T06:13:40;6.90;;;2.78;;
81191;SDS011;70665;47.652;-2.730;2023-08-30T06:18:31;6.45;;;3.15;;
81191;SDS011;70665;47.652;-2.730;2023-08-30T06:20:57;5.25;;;3.05;;
81191;SDS011;70665;47.652;-2.730;2023-08-30T06:25:55;7.15;;;3.47;;
81191;SDS011;70665;47.652;-2.730;2023-08-30T06:28:22;9.32;;;3.15;;
81191;SDS011;70665;47.652;-2.730;2023-08-30T06:33:13;5.78;;;2.97;;
81191;SDS011;70665;47.652;-2.730;2023-08-30T06:35:38;5.60;;;2.55;;
81191;SDS011;70665;47.652;-2.730;2023-08-30T06:40:30;6.82;;;3.10;;
81191;SDS011;70665;47.652;-2.730;2023-08-30T06:45:22;7.85;;;3.15;;
81191;SDS011;70665;47.652;-2.730;2023-08-30T06:50:14;5.28;;;2.83;;
81191;SDS011;70665;47.652;-2.730;2023-08-30T06:55:05;7.85;;;3.03;;
81191;SDS011;70665;47.652;-2.730;2023-08-30T06:57:31;6.10;;;3.30;;
81191;SDS011;70665;47.652;-2.730;2023-08-30T07:02:24;5.80;;;2.95;;
81191;SDS011;70665;47.652;-2.730;2023-08-30T07:04:50;7.60;;;2.90;;
81191;SDS011;70665;47.652;-2.730;2023-08-30T07:09:42;6.07;;;2.65;;
81191;SDS011;70665;47.652;-2.730;2023-08-30T07:12:07;9.30;;;2.85;;
81191;SDS011;70665;47.652;-2.730;2023-08-30T07:16:58;5.35;;;2.30;;
81191;SDS011;70665;47.652;-2.730;2023-08-30T07:19:24;6.32;;;2.50;;
81191;SDS011;70665;47.652;-2.730;2023-08-30T07:24:16;5.63;;;2.28;;
81191;SDS011;70665;47.652;-2.730;2023-08-30T07:26:41;6.78;;;2.97;;
81191;SDS011;70665;47.652;-2.730;2023-08-30T07:29:08;12.27;;;2.55;;
81191;SDS011;70665;47.652;-2.730;2023-08-30T07:31:34;5.57;;;2.22;;
81191;SDS011;70665;47.652;-2.730;2023-08-30T07:36:26;5.50;;;2.33;;
81191;SDS011;70665;47.652;-2.730;2023-08-30T07:38:53;7.40;;;2.75;;
81191;SDS011;70665;47.652;-2.730;2023-08-30T07:41:19;9.43;;;2.50;;
81191;SDS011;70665;47.652;-2.730;2023-08-30T07:46:11;5.47;;;2.03;;
81191;SDS011;70665;47.652;-2.730;2023-08-30T07:51:03;6.40;;;2.35;;
81191;SDS011;70665;47.652;-2.730;2023-08-30T07:53:29;10.55;;;2.70;;
81191;SDS011;70665;47.652;-2.730;2023-08-30T07:58:20;6.28;;;2.40;;
81191;SDS011;70665;47.652;-2.730;2023-08-30T08:00:49;9.48;;;2.13;;
81191;SDS011;70665;47.652;-2.730;2023-08-30T08:03:16;11.02;;;2.53;;
81191;SDS011;70665;47.652;-2.730;2023-08-30T08:08:07;6.00;;;2.22;;
81191;SDS011;70665;47.652;-2.730;2023-08-30T08:10:35;12.60;;;2.53;;
81191;SDS011;70665;47.652;-2.730;2023-08-30T08:15:29;9.85;;;3.55;;
81191;SDS011;70665;47.652;-2.730;2023-08-30T08:17:58;7.07;;;2.40;;
81191;SDS011;70665;47.652;-2.730;2023-08-30T08:20:24;8.90;;;2.75;;
81191;SDS011;70665;47.652;-2.730;2023-08-30T08:22:50;8.52;;;3.42;;
81191;SDS011;70665;47.652;-2.730;2023-08-30T08:25:16;11.70;;;2.60;;
81191;SDS011;70665;47.652;-2.730;2023-08-30T08:27:42;8.05;;;2.50;;
81191;SDS011;70665;47.652;-2.730;2023-08-30T08:30:07;6.97;;;2.15;;
81191;SDS011;70665;47.652;-2.730;2023-08-30T08:32:34;12.23;;;2.38;;
81191;SDS011;70665;47.652;-2.730;2023-08-30T08:35:01;10.93;;;2.30;;
81191;SDS011;70665;47.652;-2.730;2023-08-30T08:37:28;12.05;;;2.40;;
81191;SDS011;70665;47.652;-2.730;2023-08-30T08:39:53;13.73;;;2.65;;
81191;SDS011;70665;47.652;-2.730;2023-08-30T08:42:19;6.60;;;2.10;;
81191;SDS011;70665;47.652;-2.730;2023-08-30T08:44:51;8.80;;;2.78;;
81191;SDS011;70665;47.652;-2.730;2023-08-30T08:47:19;10.75;;;2.25;;
81191;SDS011;70665;47.652;-2.730;2023-08-30T08:49:46;14.75;;;2.45;;
81191;SDS011;70665;47.652;-2.730;2023-08-30T08:52:13;6.65;;;2.03;;
81191;SDS011;70665;47.652;-2.730;2023-08-30T08:54:40;11.27;;;2.20;;
81191;SDS011;70665;47.652;-2.730;2023-08-30T08:57:08;8.63;;;2.22;;
81191;SDS011;70665;47.652;-2.730;2023-08-30T08:59:34;11.77;;;2.22;;
81191;SDS011;70665;47.652;-2.730;2023-08-30T09:02:00;7.18;;;1.88;;
81191;SDS011;70665;47.652;-2.730;2023-08-30T09:04:26;11.60;;;2.78;;
81191;SDS011;70665;47.652;-2.730;2023-08-30T09:06:55;11.10;;;2.72;;
81191;SDS011;70665;47.652;-2.730;2023-08-30T09:09:21;13.40;;;2.83;;
81191;SDS011;70665;47.652;-2.730;2023-08-30T09:11:48;8.02;;;2.42;;
81191;SDS011;70665;47.652;-2.730;2023-08-30T09:14:13;12.45;;;2.47;;
81191;SDS011;70665;47.652;-2.730;2023-08-30T09:16:39;11.02;;;2.28;;
81191;SDS011;70665;47.652;-2.730;2023-08-30T09:19:05;12.02;;;2.58;;
81191;SDS011;70665;47.652;-2.730;2023-08-30T09:21:32;7.97;;;2.53;;
81191;SDS011;70665;47.652;-2.730;2023-08-30T09:23:58;8.07;;;2.00;;
81191;SDS011;70665;47.652;-2.730;2023-08-30T09:26:29;10.60;;;2.58;;
81191;SDS011;70665;47.652;-2.730;2023-08-30T09:29:02;7.18;;;2.00;;
81191;SDS011;70665;47.652;-2.730;2023-08-30T09:31:34;9.40;;;2.50;;
81191;SDS011;70665;47.652;-2.730;2023-08-30T09:34:02;10.95;;;2.42;;
81191;SDS011;70665;47.652;-2.730;2023-08-30T09:36:35;12.73;;;2.42;;
81191;SDS011;70665;47.652;-2.730;2023-08-30T09:39:08;5.70;;;2.75;;
81191;SDS011;70665;47.652;-2.730;2023-08-30T09:41:35;16.60;;;2.80;;
81191;SDS011;70665;47.652;-2.730;2023-08-30T09:44:14;10.75;;;2.33;;
81191;SDS011;70665;47.652;-2.730;2023-08-30T09:49:13;6.78;;;1.92;;
81191;SDS011;70665;47.652;-2.730;2023-08-30T09:51:39;21.60;;;2.50;;
81191;SDS011;70665;47.652;-2.730;2023-08-30T09:54:07;11.35;;;2.15;;
81191;SDS011;70665;47.652;-2.730;2023-08-30T09:56:41;9.48;;;2.42;;
81191;SDS011;70665;47.652;-2.730;2023-08-30T09:59:09;8.35;;;2.10;;
81191;SDS011;70665;47.652;-2.730;2023-08-30T10:01:36;8.80;;;2.25;;
81191;SDS011;70665;47.652;-2.730;2023-08-30T10:04:02;11.23;;;2.70;;
81191;SDS011;70665;47.652;-2.730;2023-08-30T10:06:29;7.65;;;2.20;;
81191;SDS011;70665;47.652;-2.730;2023-08-30T10:08:55;7.13;;;2.53;;
81191;SDS011;70665;47.652;-2.730;2023-08-30T10:11:22;7.45;;;2.20;;
81191;SDS011;70665;47.652;-2.730;2023-08-30T10:13:49;7.63;;;2.15;;
81191;SDS011;70665;47.652;-2.730;2023-08-30T10:16:22;8.70;;;2.38;;
81191;SDS011;70665;47.652;-2.730;2023-08-30T10:18:52;13.75;;;2.80;;
81191;SDS011;70665;47.652;-2.730;2023-08-30T10:21:31;9.27;;;1.90;;
81191;SDS011;70665;47.652;-2.730;2023-08-30T10:23:57;10.65;;;2.50;;
81191;SDS011;70665;47.652;-2.730;2023-08-30T10:26:24;9.30;;;1.90;;
81191;SDS011;70665;47.652;-2.730;2023-08-30T10:28:52;8.38;;;2.10;;
81191;SDS011;70665;47.652;-2.730;2023-08-30T10:31:19;7.60;;;1.95;;
81191;SDS011;70665;47.652;-2.730;2023-08-30T10:33:52;6.40;;;2.13;;
81191;SDS011;70665;47.652;-2.730;2023-08-30T10:36:22;9.20;;;2.50;;
81191;SDS011;70665;47.652;-2.730;2023-08-30T10:38:55;6.78;;;1.75;;
81191;SDS011;70665;47.652;-2.730;2023-08-30T10:41:24;8.02;;;2.30;;
81191;SDS011;70665;47.652;-2.730;2023-08-30T10:43:51;11.07;;;2.25;;
81191;SDS011;70665;47.652;-2.730;2023-08-30T10:46:33;7.53;;;2.00;;
81191;SDS011;70665;47.652;-2.730;2023-08-30T10:49:13;12.52;;;2.22;;
81191;SDS011;70665;47.652;-2.730;2023-08-30T10:51:42;5.50;;;2.00;;
81191;SDS011;70665;47.652;-2.730;2023-08-30T10:54:12;8.48;;;1.83;;
81191;SDS011;70665;47.652;-2.730;2023-08-30T10:56:56;10.25;;;1.83;;
81191;SDS011;70665;47.652;-2.730;2023-08-30T10:59:24;9.68;;;2.50;;
81191;SDS011;70665;47.652;-2.730;2023-08-30T11:01:50;10.95;;;2.15;;
81191;SDS011;70665;47.652;-2.730;2023-08-30T11:04:17;8.43;;;2.00;;
81191;SDS011;70665;47.652;-2.730;2023-08-30T11:06:47;6.28;;;1.98;;
81191;SDS011;70665;47.652;-2.730;2023-08-30T11:09:14;6.68;;;2.05;;
81191;SDS011;70665;47.652;-2.730;2023-08-30T11:11:43;8.95;;;2.50;;
81191;SDS011;70665;47.652;-2.730;2023-08-30T11:14:09;6.72;;;1.88;;
81191;SDS011;70665;47.652;-2.730;2023-08-30T11:16:35;6.40;;;1.80;;
81191;SDS011;70665;47.652;-2.730;2023-08-30T11:19:01;7.05;;;2.10;;
81191;SDS011;70665;47.652;-2.730;2023-08-30T11:21:32;8.07;;;2.00;;
81191;SDS011;70665;47.652;-2.730;2023-08-30T11:23:59;7.90;;;1.98;;
81191;SDS011;70665;47.652;-2.730;2023-08-30T11:26:25;7.40;;;1.77;;
81191;SDS011;70665;47.652;-2.730;2023-08-30T11:28:51;7.57;;;1.85;;
81191;SDS011;70665;47.652;-2.730;2023-08-30T11:31:18;7.78;;;2.35;;
81191;SDS011;70665;47.652;-2.730;2023-08-30T11:33:54;9.50;;;2.20;;
81191;SDS011;70665;47.652;-2.730;2023-08-30T11:36:22;7.03;;;2.03;;
81191;SDS011;70665;47.652;-2.730;2023-08-30T11:38:54;9.02;;;2.20;;
81191;SDS011;70665;47.652;-2.730;2023-08-30T11:41:20;8.93;;;1.90;;
81191;SDS011;70665;47.652;-2.730;2023-08-30T11:43:47;8.77;;;2.35;;
81191;SDS011;70665;47.652;-2.730;2023-08-30T11:46:13;6.88;;;1.90;;
81191;SDS011;70665;47.652;-2.730;2023-08-30T11:48:39;8.55;;;2.25;;
81191;SDS011;70665;47.652;-2.730;2023-08-30T11:51:06;5.20;;;2.08;;
81191;SDS011;70665;47.652;-2.730;2023-08-30T11:53:33;8.95;;;2.67;;
81191;SDS011;70665;47.652;-2.730;2023-08-30T11:55:59;8.98;;;2.20;;
81191;SDS011;70665;47.652;-2.730;2023-08-30T11:58:25;6.75;;;1.83;;
81191;SDS011;70665;47.652;-2.730;2023-08-30T12:00:51;8.43;;;2.20;;
81191;SDS011;70665;47.652;-2.730;2023-08-30T12:03:19;9.10;;;2.70;;
81191;SDS011;70665;47.652;-2.730;2023-08-30T12:05:46;7.40;;;2.10;;
81191;SDS011;70665;47.652;-2.730;2023-08-30T12:08:25;10.75;;;2.20;;
81191;SDS011;70665;47.652;-2.730;2023-08-30T12:10:52;12.23;;;2.05;;
81191;SDS011;70665;47.652;-2.730;2023-08-30T12:13:27;7.43;;;2.03;;
81191;SDS011;70665;47.652;-2.730;2023-08-30T12:15:56;8.20;;;1.80;;
81191;SDS011;70665;47.652;-2.730;2023-08-30T12:18:24;10.82;;;2.40;;
81191;SDS011;70665;47.652;-2.730;2023-08-30T12:23:21;6.70;;;2.03;;
81191;SDS011;70665;47.652;-2.730;2023-08-30T12:26:31;7.68;;;1.75;;
81191;SDS011;70665;47.652;-2.730;2023-08-30T12:28:42;7.55;;;1.85;;
81191;SDS011;70665;47.652;-2.730;2023-08-30T12:31:09;8.43;;;2.22;;
81191;SDS011;70665;47.652;-2.730;2023-08-30T12:33:36;6.60;;;1.98;;
81191;SDS011;70665;47.652;-2.730;2023-08-30T12:36:02;5.75;;;1.67;;
81191;SDS011;70665;47.652;-2.730;2023-08-30T12:38:28;5.90;;;1.75;;
81191;SDS011;70665;47.652;-2.730;2023-08-30T12:40:55;8.52;;;1.77;;
81191;SDS011;70665;47.652;-2.730;2023-08-30T12:43:22;7.55;;;1.98;;
81191;SDS011;70665;47.652;-2.730;2023-08-30T12:45:48;11.10;;;2.15;;
81191;SDS011;70665;47.652;-2.730;2023-08-30T12:48:15;9.63;;;2.72;;
81191;SDS011;70665;47.652;-2.730;2023-08-30T12:50:48;9.35;;;2.38;;
81191;SDS011;70665;47.652;-2.730;2023-08-30T12:53:14;8.88;;;2.03;;
81191;SDS011;70665;47.652;-2.730;2023-08-30T12:55:43;9.68;;;2.03;;
81191;SDS011;70665;47.652;-2.730;2023-08-30T12:58:09;5.75;;;2.00;;
81191;SDS011;70665;47.652;-2.730;2023-08-30T13:00:36;5.20;;;2.00;;
81191;SDS011;70665;47.652;-2.730;2023-08-30T13:03:02;6.18;;;1.85;;
81191;SDS011;70665;47.652;-2.730;2023-08-30T13:05:28;8.35;;;1.95;;
81191;SDS011;70665;47.652;-2.730;2023-08-30T13:07:55;6.70;;;2.30;;
81191;SDS011;70665;47.652;-2.730;2023-08-30T13:10:21;8.13;;;2.08;;
81191;SDS011;70665;47.652;-2.730;2023-08-30T13:12:46;8.00;;;2.30;;
81191;SDS011;70665;47.652;-2.730;2023-08-30T13:15:12;5.68;;;2.03;;
81191;SDS011;70665;47.652;-2.730;2023-08-30T13:17:38;10.93;;;2.25;;
81191;SDS011;70665;47.652;-2.730;2023-08-30T13:20:03;6.45;;;2.65;;
81191;SDS011;70665;47.652;-2.730;2023-08-30T13:22:30;6.95;;;1.83;;
81191;SDS011;70665;47.652;-2.730;2023-08-30T13:24:55;8.63;;;1.80;;
81191;SDS011;70665;47.652;-2.730;2023-08-30T13:27:21;7.85;;;2.53;;
81191;SDS011;70665;47.652;-2.730;2023-08-30T13:29:48;8.35;;;1.95;;
81191;SDS011;70665;47.652;-2.730;2023-08-30T13:32:13;8.90;;;2.00;;
81191;SDS011;70665;47.652;-2.730;2023-08-30T13:34:39;12.35;;;2.20;;
81191;SDS011;70665;47.652;-2.730;2023-08-30T13:37:05;9.27;;;2.67;;
81191;SDS011;70665;47.652;-2.730;2023-08-30T13:39:31;7.78;;;2.42;;
81191;SDS011;70665;47.652;-2.730;2023-08-30T13:41:57;8.75;;;2.20;;
81191;SDS011;70665;47.652;-2.730;2023-08-30T13:44:22;8.93;;;2.28;;
81191;SDS011;70665;47.652;-2.730;2023-08-30T13:46:49;8.75;;;2.17;;
81191;SDS011;70665;47.652;-2.730;2023-08-30T13:49:15;7.55;;;2.22;;
81191;SDS011;70665;47.652;-2.730;2023-08-30T13:51:42;12.10;;;2.13;;
81191;SDS011;70665;47.652;-2.730;2023-08-30T13:54:09;7.97;;;2.17;;
81191;SDS011;70665;47.652;-2.730;2023-08-30T13:56:35;7.70;;;2.20;;
81191;SDS011;70665;47.652;-2.730;2023-08-30T13:59:03;10.05;;;2.30;;
81191;SDS011;70665;47.652;-2.730;2023-08-30T14:01:30;9.75;;;2.67;;
81191;SDS011;70665;47.652;-2.730;2023-08-30T14:03:56;8.48;;;2.30;;
81191;SDS011;70665;47.652;-2.730;2023-08-30T14:06:22;10.25;;;2.50;;
81191;SDS011;70665;47.652;-2.730;2023-08-30T14:08:47;7.13;;;2.10;;
81191;SDS011;70665;47.652;-2.730;2023-08-30T14:11:13;7.28;;;1.77;;
81191;SDS011;70665;47.652;-2.730;2023-08-30T14:13:39;8.68;;;2.05;;
81191;SDS011;70665;47.652;-2.730;2023-08-30T14:16:05;7.95;;;2.08;;
81191;SDS011;70665;47.652;-2.730;2023-08-30T14:18:31;9.35;;;2.45;;
81191;SDS011;70665;47.652;-2.730;2023-08-30T14:20:57;10.52;;;2.35;;
81191;SDS011;70665;47.652;-2.730;2023-08-30T14:23:24;8.45;;;2.40;;
81191;SDS011;70665;47.652;-2.730;2023-08-30T14:25:59;9.20;;;1.83;;
81191;SDS011;70665;47.652;-2.730;2023-08-30T14:28:26;7.57;;;2.30;;
81191;SDS011;70665;47.652;-2.730;2023-08-30T14:30:52;7.63;;;2.28;;
81191;SDS011;70665;47.652;-2.730;2023-08-30T14:33:19;13.02;;;2.20;;
81191;SDS011;70665;47.652;-2.730;2023-08-30T14:35:45;11.60;;;2.67;;
81191;SDS011;70665;47.652;-2.730;2023-08-30T14:38:11;11.65;;;2.40;;
81191;SDS011;70665;47.652;-2.730;2023-08-30T14:40:37;7.28;;;2.30;;
81191;SDS011;70665;47.652;-2.730;2023-08-30T14:43:03;10.93;;;2.58;;
81191;SDS011;70665;47.652;-2.730;2023-08-30T14:45:29;5.88;;;2.03;;
81191;SDS011;70665;47.652;-2.730;2023-08-30T14:47:55;10.25;;;2.58;;
81191;SDS011;70665;47.652;-2.730;2023-08-30T14:50:21;9.63;;;2.17;;
81191;SDS011;70665;47.652;-2.730;2023-08-30T14:52:46;7.00;;;2.25;;
81191;SDS011;70665;47.652;-2.730;2023-08-30T14:55:12;9.98;;;2.70;;
81191;SDS011;70665;47.652;-2.730;2023-08-30T14:57:37;7.90;;;2.22;;
81191;SDS011;70665;47.652;-2.730;2023-08-30T15:00:04;8.90;;;2.20;;
81191;SDS011;70665;47.652;-2.730;2023-08-30T15:02:30;8.57;;;2.22;;
81191;SDS011;70665;47.652;-2.730;2023-08-30T15:04:56;10.50;;;2.83;;
81191;SDS011;70665;47.652;-2.730;2023-08-30T15:07:22;9.70;;;2.55;;
81191;SDS011;70665;47.652;-2.730;2023-08-30T15:09:48;10.75;;;2.58;;
81191;SDS011;70665;47.652;-2.730;2023-08-30T15:12:14;11.68;;;2.00;;
81191;SDS011;70665;47.652;-2.730;2023-08-30T15:14:40;7.45;;;2.15;;
81191;SDS011;70665;47.652;-2.730;2023-08-30T15:17:07;10.75;;;2.22;;
81191;SDS011;70665;47.652;-2.730;2023-08-30T15:19:33;10.27;;;2.60;;
81191;SDS011;70665;47.652;-2.730;2023-08-30T15:21:59;6.25;;;2.13;;
81191;SDS011;70665;47.652;-2.730;2023-08-30T15:24:24;14.32;;;2.70;;
81191;SDS011;70665;47.652;-2.730;2023-08-30T15:26:50;10.27;;;2.55;;
81191;SDS011;70665;47.652;-2.730;2023-08-30T15:29:16;6.32;;;2.20;;
81191;SDS011;70665;47.652;-2.730;2023-08-30T15:31:41;10.20;;;1.98;;
81191;SDS011;70665;47.652;-2.730;2023-08-30T15:34:08;8.73;;;2.15;;
81191;SDS011;70665;47.652;-2.730;2023-08-30T15:36:33;6.40;;;1.77;;
81191;SDS011;70665;47.652;-2.730;2023-08-30T15:38:59;7.63;;;2.20;;
81191;SDS011;70665;47.652;-2.730;2023-08-30T15:41:25;9.23;;;2.33;;
81191;SDS011;70665;47.652;-2.730;2023-08-30T15:43:50;7.88;;;2.47;;
81191;SDS011;70665;47.652;-2.730;2023-08-30T15:46:16;10.00;;;2.67;;
81191;SDS011;70665;47.652;-2.730;2023-08-30T15:48:42;6.28;;;2.28;;
81191;SDS011;70665;47.652;-2.730;2023-08-30T15:51:08;9.18;;;2.10;;
81191;SDS011;70665;47.652;-2.730;2023-08-30T15:53:34;7.90;;;2.00;;
81191;SDS011;70665;47.652;-2.730;2023-08-30T15:56:01;7.63;;;2.13;;
81191;SDS011;70665;47.652;-2.730;2023-08-30T15:58:27;9.20;;;2.33;;
81191;SDS011;70665;47.652;-2.730;2023-08-30T16:00:52;11.95;;;2.30;;
81191;SDS011;70665;47.652;-2.730;2023-08-30T16:03:18;7.40;;;2.22;;
81191;SDS011;70665;47.652;-2.730;2023-08-30T16:05:44;9.52;;;1.90;;
81191;SDS011;70665;47.652;-2.730;2023-08-30T16:08:10;10.77;;;2.70;;
81191;SDS011;70665;47.652;-2.730;2023-08-30T16:10:36;4.80;;;1.77;;
81191;SDS011;70665;47.652;-2.730;2023-08-30T16:13:02;7.28;;;1.92;;
81191;SDS011;70665;47.652;-2.730;2023-08-30T16:15:28;7.28;;;1.98;;
81191;SDS011;70665;47.652;-2.730;2023-08-30T16:17:56;9.82;;;2.22;;
81191;SDS011;70665;47.652;-2.730;2023-08-30T16:20:22;6.97;;;1.85;;
81191;SDS011;70665;47.652;-2.730;2023-08-30T16:22:49;10.50;;;1.95;;
81191;SDS011;70665;47.652;-2.730;2023-08-30T16:25:15;9.32;;;2.20;;